Time;durP1;ratioP1;P1;durP2;ratioP2;P2;SDS_P1;SDS_P2;PMS_P1;PMS_P2;Temp;Humidity;BMP_temperature;BMP_pressure;BME280_temperature;BME280_humidity;BME280_pressure;Samples;Min_cycle;Max_cycle;Signal;HPM_P1;HPM_P2
2021/11/24 00:00:37;;;;;;;29.88;18.38;;;1.20;99.90;;;;;;5113724;28;20046;-68
2021/11/24 00:03:04;;;;;;;30.08;18.58;;;1.30;99.90;;;;;;5113529;28;20040;-68
2021/11/24 00:05:32;;;;;;;32.25;17.73;;;1.30;99.90;;;;;;5105046;28;20048;-68
2021/11/24 00:07:59;;;;;;;38.63;19.52;;;1.30;99.90;;;;;;5098319;28;20036;-68
2021/11/24 00:10:32;;;;;;;33.05;19.77;;;1.30;99.90;;;;;;5113495;28;20048;-67
2021/11/24 00:13:01;;;;;;;33.58;17.90;;;1.30;99.90;;;;;;5113274;28;20114;-67
2021/11/24 00:15:29;;;;;;;33.80;19.30;;;1.30;99.90;;;;;;5097042;28;20036;-67
2021/11/24 00:17:56;;;;;;;36.67;18.35;;;1.20;99.90;;;;;;5113041;28;20387;-67
2021/11/24 00:20:24;;;;;;;34.78;18.60;;;1.20;99.90;;;;;;5112992;28;20378;-67
2021/11/24 00:22:51;;;;;;;32.88;19.00;;;1.20;99.90;;;;;;5111026;28;20458;-67
2021/11/24 00:25:19;;;;;;;31.98;19.75;;;1.10;99.90;;;;;;5077427;28;20513;-67
2021/11/24 00:27:47;;;;;;;37.35;18.80;;;1.20;99.90;;;;;;5103458;28;20043;-67
2021/11/24 00:30:16;;;;;;;39.15;19.67;;;1.20;99.90;;;;;;5068790;28;20048;-67
2021/11/24 00:32:43;;;;;;;31.48;17.75;;;1.20;99.90;;;;;;5112715;28;20489;-67
2021/11/24 00:35:10;;;;;;;29.70;19.02;;;1.20;99.90;;;;;;5106710;28;20050;-68
2021/11/24 00:37:38;;;;;;;36.00;21.13;;;1.20;99.90;;;;;;5092697;28;20054;-67
2021/11/24 00:40:06;;;;;;;33.58;19.25;;;1.30;99.90;;;;;;5107650;28;20120;-68
2021/11/24 00:42:34;;;;;;;30.75;18.00;;;1.20;99.90;;;;;;5112671;28;20508;-68
2021/11/24 00:45:03;;;;;;;31.58;18.08;;;1.20;99.90;;;;;;5094612;28;20038;-68
2021/11/24 00:47:31;;;;;;;34.80;20.05;;;1.30;99.90;;;;;;5112316;28;20079;-68
2021/11/24 00:49:58;;;;;;;37.13;20.27;;;1.30;99.90;;;;;;5113103;28;20047;-68
2021/11/24 00:52:28;;;;;;;36.08;19.48;;;1.30;99.90;;;;;;5081494;28;20135;-68
2021/11/24 00:54:57;;;;;;;33.13;18.80;;;1.30;99.90;;;;;;5112808;28;20046;-68
2021/11/24 00:57:24;;;;;;;29.02;18.63;;;1.30;99.90;;;;;;5094470;28;20055;-68
2021/11/24 00:59:52;;;;;;;32.33;19.38;;;1.30;99.90;;;;;;5108483;28;20039;-67
2021/11/24 01:02:19;;;;;;;32.75;19.08;;;1.30;99.90;;;;;;5102580;28;20089;-67
2021/11/24 01:04:47;;;;;;;31.45;18.13;;;1.30;99.90;;;;;;5109332;28;20046;-67
2021/11/24 01:07:14;;;;;;;34.33;18.90;;;1.40;99.90;;;;;;5083180;28;20135;-67
2021/11/24 01:09:41;;;;;;;32.17;18.67;;;1.40;99.90;;;;;;5112469;28;20043;-67
2021/11/24 01:12:08;;;;;;;37.30;18.50;;;1.40;99.90;;;;;;5093949;28;20051;-67
2021/11/24 01:14:37;;;;;;;30.15;18.52;;;1.40;99.90;;;;;;5098637;28;20073;-67
2021/11/24 01:17:04;;;;;;;32.13;18.38;;;1.40;99.90;;;;;;5093584;28;20052;-67
2021/11/24 01:19:31;;;;;;;32.15;17.98;;;1.40;99.90;;;;;;5093903;28;20461;-67
2021/11/24 01:21:59;;;;;;;37.10;18.33;;;1.40;99.90;;;;;;5111958;28;20036;-67
2021/11/24 01:24:26;;;;;;;31.63;18.17;;;1.50;99.90;;;;;;5112055;28;20051;-67
2021/11/24 01:26:53;;;;;;;32.72;19.85;;;1.50;99.90;;;;;;5111448;28;20083;-67
2021/11/24 01:29:20;;;;;;;29.90;17.70;;;1.50;99.90;;;;;;5083161;28;20036;-67
2021/11/24 01:31:48;;;;;;;34.25;18.70;;;1.50;99.90;;;;;;5106850;28;20074;-67
2021/11/24 01:34:15;;;;;;;35.80;19.10;;;1.50;99.90;;;;;;5105451;28;20094;-67
2021/11/24 01:36:42;;;;;;;30.80;17.77;;;1.50;99.90;;;;;;5108736;28;20051;-67
2021/11/24 01:39:09;;;;;;;34.83;18.92;;;1.60;99.90;;;;;;5097473;28;20073;-67
2021/11/24 01:41:38;;;;;;;29.48;17.50;;;1.60;99.90;;;;;;5081485;28;20872;-67
2021/11/24 01:44:05;;;;;;;30.05;17.45;;;1.60;99.90;;;;;;5077479;28;20062;-67
2021/11/24 01:46:32;;;;;;;28.70;17.98;;;1.60;99.90;;;;;;5111625;28;20047;-67
2021/11/24 01:49:00;;;;;;;33.28;18.50;;;1.70;99.90;;;;;;5110399;28;20047;-67
2021/11/24 01:51:27;;;;;;;34.33;19.23;;;1.60;99.90;;;;;;5110411;28;20055;-67
2021/11/24 01:53:54;;;;;;;35.90;18.92;;;1.70;99.90;;;;;;5093604;28;20494;-67
2021/11/24 01:56:21;;;;;;;40.22;20.25;;;1.70;99.90;;;;;;5111489;28;20070;-67
2021/11/24 01:58:49;;;;;;;36.28;19.40;;;1.70;99.90;;;;;;5093327;28;20035;-67
2021/11/24 02:01:16;;;;;;;32.53;18.35;;;1.70;99.90;;;;;;5108836;28;20369;-67
2021/11/24 02:03:44;;;;;;;37.20;18.75;;;1.70;99.90;;;;;;5092235;28;20048;-67
2021/11/24 02:06:12;;;;;;;32.50;19.13;;;1.70;99.90;;;;;;5098006;28;20397;-67
2021/11/24 02:08:39;;;;;;;35.17;18.08;;;1.70;99.90;;;;;;5110504;28;20047;-67
2021/11/24 02:11:06;;;;;;;34.03;18.20;;;1.60;99.90;;;;;;5079403;28;20039;-67
2021/11/24 02:13:34;;;;;;;30.95;17.77;;;1.60;99.90;;;;;;5108429;28;20521;-67
2021/11/24 02:16:01;;;;;;;27.63;16.40;;;1.70;99.90;;;;;;5100364;28;20036;-67
2021/11/24 02:18:28;;;;;;;28.63;16.90;;;1.80;99.90;;;;;;5099538;28;20200;-67
2021/11/24 02:20:56;;;;;;;29.52;16.40;;;1.70;99.90;;;;;;5081479;28;20036;-67
2021/11/24 02:23:23;;;;;;;34.45;18.23;;;1.70;99.90;;;;;;5094608;28;20040;-67
2021/11/24 02:25:50;;;;;;;32.22;18.05;;;1.80;99.90;;;;;;5093029;28;20048;-67
2021/11/24 02:28:17;;;;;;;31.15;17.48;;;1.70;99.90;;;;;;5074519;28;20089;-67
2021/11/24 02:30:45;;;;;;;25.75;15.80;;;1.70;99.90;;;;;;5095519;28;20051;-67
2021/11/24 02:33:12;;;;;;;27.00;17.00;;;1.70;99.90;;;;;;5108734;28;20043;-67
2021/11/24 02:35:44;;;;;;;30.15;17.55;;;1.70;99.90;;;;;;5073852;28;20040;-68
2021/11/24 02:38:17;;;;;;;30.58;17.63;;;1.70;99.90;;;;;;5090896;28;20455;-67
2021/11/24 02:40:45;;;;;;;29.52;16.60;;;1.60;99.90;;;;;;5085745;28;20043;-67
2021/11/24 02:43:12;;;;;;;26.95;15.80;;;1.60;99.90;;;;;;5114438;28;20046;-67
2021/11/24 02:45:40;;;;;;;33.55;17.52;;;1.60;99.90;;;;;;5097691;28;20028;-67
2021/11/24 02:48:07;;;;;;;28.15;16.70;;;1.60;99.90;;;;;;5096319;28;20086;-68
2021/11/24 02:50:35;;;;;;;26.08;16.05;;;1.60;99.90;;;;;;5081837;28;20040;-67
2021/11/24 02:53:03;;;;;;;32.22;18.45;;;1.60;99.90;;;;;;5102255;28;20410;-67
2021/11/24 02:55:30;;;;;;;27.17;16.88;;;1.60;99.90;;;;;;5093918;28;20123;-67
2021/11/24 02:57:58;;;;;;;28.17;16.33;;;1.70;99.90;;;;;;5110480;28;20048;-67
2021/11/24 03:00:28;;;;;;;28.42;17.08;;;1.70;99.90;;;;;;5093493;28;20054;-67
2021/11/24 03:02:56;;;;;;;29.27;17.98;;;1.70;99.90;;;;;;5088167;28;20059;-67
2021/11/24 03:05:26;;;;;;;28.90;17.67;;;1.70;99.90;;;;;;5093443;28;20086;-68
2021/11/24 03:07:58;;;;;;;34.72;18.25;;;1.70;99.90;;;;;;5099998;28;20429;-68
2021/11/24 03:10:26;;;;;;;30.27;17.42;;;1.70;99.90;;;;;;5094408;28;20036;-68
2021/11/24 03:12:53;;;;;;;33.00;18.40;;;1.70;99.90;;;;;;5094049;28;20266;-68
2021/11/24 03:15:21;;;;;;;29.90;17.55;;;1.70;99.90;;;;;;5095228;28;20046;-68
2021/11/24 03:17:48;;;;;;;28.27;17.75;;;1.80;99.90;;;;;;5094905;28;20048;-68
2021/11/24 03:20:16;;;;;;;33.35;17.80;;;1.80;99.90;;;;;;5093902;28;20055;-68
2021/11/24 03:22:43;;;;;;;30.48;16.83;;;1.80;99.90;;;;;;5109543;28;20432;-68
2021/11/24 03:25:11;;;;;;;36.35;18.92;;;1.80;99.90;;;;;;5103665;28;20620;-68
2021/11/24 03:27:40;;;;;;;26.50;16.90;;;1.80;99.90;;;;;;5098021;28;20044;-68
2021/11/24 03:30:12;;;;;;;30.50;17.65;;;1.80;99.90;;;;;;5086539;28;20043;-66
2021/11/24 03:32:39;;;;;;;36.80;19.00;;;1.80;99.90;;;;;;5087694;28;20048;-67
2021/11/24 03:35:13;;;;;;;34.25;20.17;;;1.90;99.90;;;;;;5093979;28;20051;-66
2021/11/24 03:37:40;;;;;;;41.22;23.52;;;1.90;99.90;;;;;;5093921;28;20052;-67
2021/11/24 03:40:09;;;;;;;43.90;23.02;;;1.90;99.90;;;;;;5097373;28;20379;-66
2021/11/24 03:42:36;;;;;;;40.30;21.73;;;1.90;99.90;;;;;;5113501;28;20470;-66
2021/11/24 03:45:04;;;;;;;41.28;22.17;;;1.90;99.90;;;;;;5083608;28;20040;-67
2021/11/24 03:47:31;;;;;;;57.75;30.45;;;1.90;99.90;;;;;;5092879;28;20098;-66
2021/11/24 03:49:59;;;;;;;43.35;23.20;;;1.90;99.90;;;;;;5096473;28;20102;-67
2021/11/24 03:52:26;;;;;;;48.17;25.88;;;1.80;99.90;;;;;;5086531;28;20059;-68
2021/11/24 03:54:53;;;;;;;37.53;20.00;;;1.90;99.90;;;;;;5082327;28;20051;-66
2021/11/24 03:57:20;;;;;;;40.58;21.40;;;1.90;99.90;;;;;;5099177;28;20214;-67
2021/11/24 03:59:48;;;;;;;40.42;21.17;;;1.90;99.90;;;;;;5089244;28;20036;-67
2021/11/24 04:02:15;;;;;;;43.45;22.02;;;1.90;99.90;;;;;;5074876;28;20044;-66
2021/11/24 04:04:43;;;;;;;46.13;23.85;;;2.00;99.90;;;;;;5108991;28;20035;-66
2021/11/24 04:07:10;;;;;;;40.78;19.80;;;2.00;99.90;;;;;;5106686;28;20534;-67
2021/11/24 04:09:38;;;;;;;40.22;22.55;;;2.00;99.90;;;;;;5094963;28;20039;-66
2021/11/24 04:12:07;;;;;;;38.08;21.60;;;2.00;99.90;;;;;;5092133;28;20112;-67
2021/11/24 04:14:35;;;;;;;36.45;21.05;;;2.00;99.90;;;;;;5092559;28;20040;-67
2021/11/24 04:17:03;;;;;;;41.17;22.73;;;2.00;99.90;;;;;;5097854;28;20036;-66
2021/11/24 04:19:30;;;;;;;35.92;21.27;;;2.00;99.90;;;;;;5089096;28;20055;-67
2021/11/24 04:21:57;;;;;;;37.47;21.27;;;2.00;99.90;;;;;;5081673;28;20702;-67
2021/11/24 04:24:26;;;;;;;30.42;19.00;;;2.00;99.90;;;;;;5089530;28;20050;-67
2021/11/24 04:26:53;;;;;;;35.17;19.55;;;2.10;99.90;;;;;;5088469;28;20040;-66
2021/11/24 04:29:21;;;;;;;35.92;21.65;;;2.10;99.90;;;;;;5101960;28;20478;-67
2021/11/24 04:31:48;;;;;;;36.33;20.55;;;2.10;99.90;;;;;;5096875;28;20032;-66
2021/11/24 04:34:15;;;;;;;35.45;19.50;;;2.10;99.90;;;;;;5092080;28;20077;-67
2021/11/24 04:36:44;;;;;;;31.42;18.02;;;2.10;99.90;;;;;;5098044;28;20044;-67
2021/11/24 04:39:11;;;;;;;34.20;20.30;;;2.10;99.90;;;;;;5099650;28;20060;-67
2021/11/24 04:41:38;;;;;;;31.02;19.33;;;2.10;99.90;;;;;;5108736;28;20036;-66
2021/11/24 04:44:06;;;;;;;26.67;18.20;;;2.10;99.90;;;;;;5110441;28;20066;-67
2021/11/24 04:46:33;;;;;;;31.90;18.88;;;2.10;99.90;;;;;;5102404;28;20059;-66
2021/11/24 04:49:01;;;;;;;32.25;18.98;;;2.10;99.90;;;;;;5102638;28;20494;-66
2021/11/24 04:51:28;;;;;;;30.10;18.35;;;2.20;99.90;;;;;;5087507;28;20040;-67
2021/11/24 04:53:55;;;;;;;28.98;17.85;;;2.20;99.90;;;;;;5081178;28;20378;-67
2021/11/24 04:56:23;;;;;;;36.08;20.58;;;2.10;99.90;;;;;;5106470;28;20035;-67
2021/11/24 04:58:55;;;;;;;36.05;20.02;;;2.20;99.90;;;;;;5112106;28;20043;-66
2021/11/24 05:01:23;;;;;;;29.65;17.08;;;2.20;99.90;;;;;;5111114;28;20047;-67
2021/11/24 05:03:51;;;;;;;30.20;18.38;;;2.20;99.90;;;;;;5093916;28;20051;-66
2021/11/24 05:06:20;;;;;;;28.55;18.60;;;2.20;99.90;;;;;;5100255;28;20040;-67
2021/11/24 05:08:48;;;;;;;39.72;23.27;;;2.30;99.90;;;;;;5112478;28;20126;-67
2021/11/24 05:11:17;;;;;;;35.83;21.92;;;2.30;99.90;;;;;;5112054;28;20040;-67
2021/11/24 05:13:51;;;;;;;32.70;19.77;;;2.30;99.90;;;;;;5104791;28;20504;-67
2021/11/24 05:16:21;;;;;;;29.60;17.40;;;2.40;99.90;;;;;;5112261;28;20405;-67
2021/11/24 05:18:49;;;;;;;30.15;17.48;;;2.40;99.90;;;;;;5097934;28;20502;-67
2021/11/24 05:21:26;;;;;;;29.60;18.35;;;2.30;99.90;;;;;;5106608;28;20040;-67
2021/11/24 05:23:56;;;;;;;30.23;16.85;;;2.40;99.90;;;;;;5111471;28;20132;-67
2021/11/24 05:26:25;;;;;;;27.25;17.65;;;2.30;99.90;;;;;;5112128;28;20039;-67
2021/11/24 05:28:53;;;;;;;36.92;21.20;;;2.30;99.90;;;;;;5108912;28;20043;-67
2021/11/24 05:31:21;;;;;;;32.67;19.35;;;2.30;99.90;;;;;;5111433;28;20051;-67
2021/11/24 05:33:49;;;;;;;36.22;19.58;;;2.30;99.90;;;;;;5111929;28;20101;-67
2021/11/24 05:36:17;;;;;;;26.42;17.48;;;2.40;99.90;;;;;;5110956;28;20397;-67
2021/11/24 05:38:46;;;;;;;29.48;17.70;;;2.40;99.90;;;;;;5110959;28;20044;-67
2021/11/24 05:41:14;;;;;;;27.88;16.33;;;2.40;99.90;;;;;;5102269;28;20039;-67
2021/11/24 05:43:42;;;;;;;27.05;17.17;;;2.40;99.90;;;;;;5092248;28;20363;-67
2021/11/24 05:46:27;;;;;;;25.80;16.23;;;2.40;99.90;;;;;;5075247;28;20058;-66
2021/11/24 05:48:56;;;;;;;26.98;17.10;;;2.40;99.90;;;;;;5081518;28;20043;-66
2021/11/24 05:51:23;;;;;;;25.67;15.68;;;2.40;99.90;;;;;;5111439;28;20035;-66
2021/11/24 05:53:50;;;;;;;26.45;16.83;;;2.50;99.90;;;;;;5111693;28;20044;-66
2021/11/24 05:56:18;;;;;;;27.70;17.23;;;2.50;99.90;;;;;;5093629;28;20123;-66
2021/11/24 05:58:45;;;;;;;27.92;16.85;;;2.40;99.90;;;;;;5110889;28;20047;-66
2021/11/24 06:01:12;;;;;;;33.03;18.60;;;2.50;99.90;;;;;;5104016;28;20050;-66
2021/11/24 06:03:39;;;;;;;27.10;17.27;;;2.40;99.90;;;;;;5108953;28;20096;-66
2021/11/24 06:06:07;;;;;;;29.73;16.65;;;2.40;99.90;;;;;;5110999;28;20458;-66
2021/11/24 06:08:34;;;;;;;31.13;17.15;;;2.40;99.90;;;;;;5096636;28;20031;-66
2021/11/24 06:11:01;;;;;;;26.02;16.63;;;2.40;99.90;;;;;;5093308;28;20062;-66
2021/11/24 06:13:33;;;;;;;;;;;2.40;99.90;;;;;;5108224;28;20108;-66
2021/11/24 06:16:00;;;;;;;29.83;17.92;;;2.40;99.90;;;;;;5090447;28;20361;-66
2021/11/24 06:18:28;;;;;;;28.38;16.75;;;2.40;99.90;;;;;;5103944;28;20051;-66
2021/11/24 06:20:55;;;;;;;30.10;19.20;;;2.40;99.90;;;;;;5103471;28;20070;-66
2021/11/24 06:23:22;;;;;;;31.67;16.95;;;2.50;99.90;;;;;;5103087;28;20046;-66
2021/11/24 06:25:49;;;;;;;29.20;17.67;;;2.50;99.90;;;;;;5105038;28;20039;-66
2021/11/24 06:28:16;;;;;;;28.83;17.02;;;2.50;99.90;;;;;;5100050;28;20036;-66
2021/11/24 06:30:44;;;;;;;30.67;17.92;;;2.50;99.90;;;;;;5094589;28;20402;-66
2021/11/24 06:33:11;;;;;;;25.65;16.42;;;2.60;99.90;;;;;;5085581;28;20482;-65
2021/11/24 06:35:39;;;;;;;25.42;17.65;;;2.60;99.90;;;;;;5077847;28;20072;-66
2021/11/24 06:38:07;;;;;;;28.73;17.15;;;2.60;99.90;;;;;;5066404;28;20044;-66
2021/11/24 06:40:34;;;;;;;29.65;17.40;;;2.60;99.90;;;;;;5091297;28;20051;-66
2021/11/24 06:43:01;;;;;;;28.63;15.82;;;2.70;99.90;;;;;;5105860;28;20047;-66
2021/11/24 06:45:29;;;;;;;29.45;17.45;;;2.60;99.90;;;;;;5105792;28;20043;-66
2021/11/24 06:47:56;;;;;;;28.13;16.35;;;2.60;99.90;;;;;;5109415;28;20178;-66
2021/11/24 06:50:23;;;;;;;25.52;16.63;;;2.70;99.90;;;;;;5109572;28;20419;-66
2021/11/24 06:52:51;;;;;;;29.42;17.83;;;2.70;99.90;;;;;;5106959;28;20061;-66
2021/11/24 06:55:18;;;;;;;28.30;17.08;;;2.70;99.90;;;;;;5093061;28;20355;-66
2021/11/24 06:57:45;;;;;;;27.52;18.42;;;2.60;99.90;;;;;;5110904;28;20054;-66
2021/11/24 07:00:13;;;;;;;32.22;18.33;;;2.60;99.90;;;;;;5085937;28;20032;-66
2021/11/24 07:02:40;;;;;;;27.20;17.38;;;2.70;99.90;;;;;;5102571;28;20040;-66
2021/11/24 07:05:09;;;;;;;24.40;16.67;;;2.70;99.90;;;;;;5105347;28;20128;-66
2021/11/24 07:07:36;;;;;;;27.67;17.00;;;2.70;99.90;;;;;;5099080;28;20036;-66
2021/11/24 07:10:05;;;;;;;30.60;17.50;;;2.80;99.90;;;;;;5089828;28;20122;-67
2021/11/24 07:12:33;;;;;;;26.52;16.83;;;2.70;99.90;;;;;;5107476;28;20043;-67
2021/11/24 07:15:00;;;;;;;33.65;19.15;;;2.70;99.90;;;;;;5089157;28;20047;-66
2021/11/24 07:17:27;;;;;;;30.02;18.60;;;2.60;99.90;;;;;;5101666;28;20063;-66
2021/11/24 07:19:55;;;;;;;28.13;16.83;;;2.60;99.90;;;;;;5090239;28;20142;-66
2021/11/24 07:22:23;;;;;;;26.48;17.27;;;2.60;99.90;;;;;;5098123;28;20039;-67
2021/11/24 07:24:50;;;;;;;28.58;17.83;;;2.60;99.90;;;;;;5089801;28;20048;-66
2021/11/24 07:27:17;;;;;;;27.08;16.33;;;2.70;99.90;;;;;;5113557;28;20378;-66
2021/11/24 07:29:45;;;;;;;23.67;16.02;;;2.80;99.90;;;;;;5101526;28;20135;-66
2021/11/24 07:32:12;;;;;;;27.60;17.35;;;2.90;99.90;;;;;;5095542;28;20053;-66
2021/11/24 07:34:40;;;;;;;25.95;16.00;;;3.00;99.90;;;;;;5095800;28;20059;-66
2021/11/24 07:37:07;;;;;;;27.67;16.33;;;3.00;99.90;;;;;;5095108;28;20478;-66
2021/11/24 07:39:35;;;;;;;32.75;16.40;;;3.10;99.90;;;;;;5113778;28;20059;-66
2021/11/24 07:42:02;;;;;;;25.15;15.38;;;3.10;99.90;;;;;;5112754;28;20043;-65
2021/11/24 07:44:29;;;;;;;29.02;17.13;;;3.10;99.90;;;;;;5113626;28;20071;-66
2021/11/24 07:47:00;;;;;;;24.33;15.40;;;3.20;99.90;;;;;;5113571;28;20110;-66
2021/11/24 07:49:29;;;;;;;23.60;16.40;;;3.20;99.90;;;;;;5092838;28;20425;-66
2021/11/24 07:51:57;;;;;;;25.55;15.35;;;3.20;99.90;;;;;;5110188;28;20077;-66
2021/11/24 07:54:24;;;;;;;27.45;14.73;;;3.30;99.90;;;;;;5110144;28;20383;-66
2021/11/24 07:56:51;;;;;;;25.38;15.73;;;3.40;99.90;;;;;;5107601;28;20048;-66
2021/11/24 07:59:19;;;;;;;26.58;15.82;;;3.60;99.90;;;;;;5074814;28;20510;-66
2021/11/24 08:01:46;;;;;;;29.58;16.02;;;3.70;99.90;;;;;;5060479;28;20088;-67
2021/11/24 08:04:14;;;;;;;24.08;15.15;;;3.90;99.90;;;;;;5105981;28;20028;-66
2021/11/24 08:06:41;;;;;;;25.23;15.48;;;4.00;99.90;;;;;;5091352;28;20043;-65
2021/11/24 08:09:09;;;;;;;28.45;14.95;;;4.10;99.90;;;;;;5100942;28;20043;-65
2021/11/24 08:11:36;;;;;;;26.27;15.73;;;4.10;99.90;;;;;;5074126;28;20055;-67
2021/11/24 08:14:03;;;;;;;26.60;15.68;;;4.10;99.90;;;;;;5073061;28;20063;-65
2021/11/24 08:16:31;;;;;;;24.73;15.75;;;4.10;99.90;;;;;;5092388;28;20048;-66
2021/11/24 08:18:58;;;;;;;24.00;14.95;;;4.10;99.90;;;;;;5103696;28;20054;-66
2021/11/24 08:21:26;;;;;;;27.58;15.50;;;4.00;99.90;;;;;;5113140;28;20059;-65
2021/11/24 08:23:53;;;;;;;24.33;14.05;;;4.00;99.90;;;;;;5103535;28;20111;-66
2021/11/24 08:26:25;;;;;;;30.30;15.13;;;3.90;99.90;;;;;;5078203;28;20066;-66
2021/11/24 08:28:52;;;;;;;23.05;13.85;;;4.00;99.90;;;;;;5093122;28;20035;-66
2021/11/24 08:31:20;;;;;;;23.15;13.52;;;4.00;99.90;;;;;;5074737;28;20047;-66
2021/11/24 08:33:48;;;;;;;25.13;13.80;;;4.00;99.90;;;;;;5092740;28;20504;-66
2021/11/24 08:36:15;;;;;;;26.85;13.07;;;4.00;99.90;;;;;;5091060;28;20059;-66
2021/11/24 08:38:43;;;;;;;17.10;11.02;;;4.10;99.90;;;;;;5105493;28;20130;-65
2021/11/24 08:41:12;;;;;;;19.42;10.95;;;4.10;99.90;;;;;;5103109;28;20142;-65
2021/11/24 08:43:40;;;;;;;19.35;11.13;;;4.20;99.90;;;;;;5097265;28;20043;-66
2021/11/24 08:46:08;;;;;;;21.42;10.88;;;4.20;99.90;;;;;;5095590;28;20036;-66
2021/11/24 08:48:35;;;;;;;19.25;10.88;;;4.30;99.90;;;;;;5108494;28;20043;-66
2021/11/24 08:51:04;;;;;;;15.85;9.55;;;4.40;99.90;;;;;;5093260;28;20048;-66
2021/11/24 08:53:32;;;;;;;14.82;8.98;;;4.50;99.90;;;;;;5099291;28;20497;-66
2021/11/24 08:55:59;;;;;;;11.93;7.57;;;4.60;99.90;;;;;;5106466;28;20047;-66
2021/11/24 08:58:27;;;;;;;12.73;7.57;;;4.70;99.90;;;;;;5100969;28;20039;-67
2021/11/24 09:00:54;;;;;;;11.27;6.97;;;4.80;99.90;;;;;;5110952;28;20047;-65
2021/11/24 09:03:21;;;;;;;13.82;6.85;;;4.90;99.90;;;;;;5099609;28;20138;-66
2021/11/24 09:05:49;;;;;;;16.65;6.57;;;5.10;99.90;;;;;;5105099;28;20405;-66
2021/11/24 09:08:16;;;;;;;10.90;6.28;;;5.20;99.90;;;;;;5109137;28;20091;-66
2021/11/24 09:10:44;;;;;;;10.38;6.47;;;5.20;99.90;;;;;;5112317;28;20039;-66
2021/11/24 09:13:12;;;;;;;9.25;6.10;;;5.30;99.90;;;;;;5112190;28;20043;-67
2021/11/24 09:15:40;;;;;;;10.15;6.28;;;5.40;99.90;;;;;;5111774;28;20075;-66
2021/11/24 09:18:12;;;;;;;14.40;5.68;;;5.50;99.90;;;;;;5097894;28;20131;-66
2021/11/24 09:20:40;;;;;;;13.40;6.15;;;5.60;99.90;;;;;;5092989;28;20410;-66
2021/11/24 09:23:09;;;;;;;12.95;6.57;;;5.70;99.90;;;;;;5105790;28;20387;-66
2021/11/24 09:25:49;;;;;;;17.83;7.20;;;5.80;99.90;;;;;;5108980;28;20508;-66
2021/11/24 09:28:19;;;;;;;10.65;5.75;;;5.80;99.90;;;;;;5097176;28;20054;-66
2021/11/24 09:30:48;;;;;;;9.93;5.70;;;5.90;99.90;;;;;;5090708;28;20482;-66
2021/11/24 09:33:16;;;;;;;11.23;5.97;;;6.00;99.90;;;;;;5094615;28;20541;-66
2021/11/24 09:35:44;;;;;;;8.85;5.50;;;6.10;99.90;;;;;;5079039;28;20059;-65
2021/11/24 09:38:12;;;;;;;8.10;5.00;;;6.20;99.90;;;;;;5100309;28;20040;-66
2021/11/24 09:40:40;;;;;;;11.50;5.28;;;6.40;99.90;;;;;;5102573;28;20085;-65
2021/11/24 09:43:10;;;;;;;11.35;5.43;;;6.40;99.90;;;;;;5102827;28;20126;-66
2021/11/24 09:45:40;;;;;;;9.20;4.90;;;6.60;99.90;;;;;;5110113;28;20509;-66
2021/11/24 09:48:08;;;;;;;8.30;4.68;;;6.70;99.90;;;;;;5102593;28;20131;-66
2021/11/24 09:50:37;;;;;;;9.27;5.20;;;6.80;99.90;;;;;;5089708;28;20112;-66
2021/11/24 09:53:06;;;;;;;7.50;4.13;;;6.80;99.90;;;;;;5091084;28;20043;-66
2021/11/24 09:55:38;;;;;;;8.85;5.15;;;7.00;99.90;;;;;;5100238;28;20123;-66
2021/11/24 09:58:07;;;;;;;8.20;4.95;;;7.10;99.90;;;;;;5094150;28;20043;-66
2021/11/24 10:00:37;;;;;;;8.55;4.30;;;7.20;99.90;;;;;;5107295;28;20051;-67
2021/11/24 10:03:05;;;;;;;7.20;3.97;;;7.40;99.90;;;;;;5109939;28;20138;-67
2021/11/24 10:05:35;;;;;;;6.43;3.95;;;7.50;99.90;;;;;;5102464;28;20121;-66
2021/11/24 10:08:04;;;;;;;7.18;4.13;;;7.60;99.90;;;;;;5105749;28;20047;-68
2021/11/24 10:10:32;;;;;;;5.65;3.47;;;7.70;99.90;;;;;;5093389;28;20043;-67
2021/11/24 10:13:00;;;;;;;5.53;3.58;;;7.80;99.90;;;;;;5107269;28;20040;-67
2021/11/24 10:15:41;;;;;;;5.72;3.25;;;7.80;99.90;;;;;;5072218;28;20052;-67
2021/11/24 10:18:19;;;;;;;8.70;3.40;;;7.90;99.90;;;;;;5072441;28;20509;-67
2021/11/24 10:21:09;;;;;;;7.03;3.75;;;8.10;99.90;;;;;;5097724;28;20087;-67
2021/11/24 10:23:46;;;;;;;6.75;3.75;;;8.20;99.90;;;;;;5071602;28;20043;-67
2021/11/24 10:26:31;;;;;;;6.93;3.50;;;8.40;99.90;;;;;;5101880;28;20055;-66
2021/11/24 10:29:19;;;;;;;4.68;2.78;;;8.90;99.90;;;;;;5099107;28;20105;-66
2021/11/24 10:31:51;;;;;;;6.50;3.63;;;10.60;99.90;;;;;;5086469;28;20051;-67
2021/11/24 10:34:23;;;;;;;5.50;3.40;;;11.80;99.90;;;;;;5090151;28;20062;-67
2021/11/24 10:37:08;;;;;;;6.53;2.60;;;12.20;99.90;;;;;;5093414;28;20129;-67
2021/11/24 10:39:45;;;;;;;5.35;2.72;;;12.30;99.90;;;;;;5091026;28;20112;-67
2021/11/24 10:42:17;;;;;;;7.15;3.38;;;12.70;99.90;;;;;;5090331;28;20425;-67
2021/11/24 10:44:50;;;;;;;7.78;3.22;;;13.40;99.90;;;;;;5093111;28;20387;-67
2021/11/24 10:47:18;;;;;;;4.75;2.60;;;14.00;99.90;;;;;;5104182;28;20044;-68
2021/11/24 10:49:52;;;;;;;4.07;2.40;;;15.00;99.90;;;;;;5091839;28;20048;-68
2021/11/24 10:52:22;;;;;;;4.82;2.60;;;15.80;99.90;;;;;;5095652;28;20479;-67
2021/11/24 10:55:11;;;;;;;5.47;2.65;;;16.50;99.90;;;;;;5089600;28;20040;-66
2021/11/24 10:57:40;;;;;;;28.33;3.97;;;16.80;99.90;;;;;;5098754;28;20039;-67
2021/11/24 11:00:21;;;;;;;13.05;2.92;;;17.10;99.90;;;;;;5099637;28;20054;-66
2021/11/24 11:02:49;;;;;;;10.48;2.53;;;16.90;99.90;;;;;;5113131;28;20116;-66
2021/11/24 11:05:25;;;;;;;5.22;2.53;;;16.80;99.90;;;;;;5089824;28;20036;-66
2021/11/24 11:07:52;;;;;;;5.60;3.05;;;17.00;99.90;;;;;;5107414;28;20070;-67
2021/11/24 11:10:26;;;;;;;8.80;2.97;;;17.30;99.90;;;;;;5108400;28;20123;-67
2021/11/24 11:13:18;;;;;;;8.05;2.53;;;17.20;99.90;;;;;;5093470;28;20048;-66
2021/11/24 11:15:54;;;;;;;4.47;2.50;;;17.80;99.90;;;;;;5084795;28;20063;-66
2021/11/24 11:18:26;;;;;;;9.50;2.78;;;18.40;99.90;;;;;;5097946;28;20414;-67
2021/11/24 11:20:58;;;;;;;;;;;18.20;99.90;;;;;;5097138;28;20044;-66
2021/11/24 11:23:28;;;;;;;6.63;2.63;;;18.20;99.90;;;;;;5089119;28;19920;-66
2021/11/24 11:26:07;;;;;;;12.73;3.42;;;18.60;99.90;;;;;;5087788;28;20051;-67
2021/11/24 11:28:41;;;;;;;;;;;18.70;99.90;;;;;;5110442;28;20052;-67
2021/11/24 11:31:12;;;;;;;7.53;3.00;;;19.00;99.90;;;;;;5076319;28;19923;-67
2021/11/24 11:33:45;;;;;;;5.22;2.88;;;19.50;99.90;;;;;;5091323;28;20421;-66
2021/11/24 11:36:13;;;;;;;4.97;2.72;;;20.00;99.90;;;;;;5107692;28;20048;-67
2021/11/24 11:38:49;;;;;;;4.75;2.63;;;20.50;99.30;;;;;;5078953;28;20092;-68
2021/11/24 11:41:23;;;;;;;4.72;2.65;;;20.50;98.80;;;;;;5113452;28;20047;-67
2021/11/24 11:44:17;;;;;;;4.47;3.00;;;20.60;98.20;;;;;;5104395;28;20551;-67
2021/11/24 11:47:05;;;;;;;5.07;2.95;;;20.80;96.80;;;;;;5093200;28;20310;-66
2021/11/24 11:49:32;;;;;;;11.00;3.63;;;20.50;96.80;;;;;;5093345;28;20492;-67
2021/11/24 11:52:05;;;;;;;6.47;3.22;;;20.40;96.80;;;;;;5084474;28;20047;-67
2021/11/24 11:54:33;;;;;;;6.28;3.67;;;20.40;96.80;;;;;;5092562;28;20048;-67
2021/11/24 11:57:04;;;;;;;6.55;2.92;;;20.70;96.00;;;;;;5100613;28;20056;-68
2021/11/24 11:59:37;;;;;;;5.83;3.53;;;20.80;95.50;;;;;;5112110;28;20055;-68
2021/11/24 12:02:07;;;;;;;5.95;3.10;;;20.90;95.00;;;;;;5102445;28;20052;-67
2021/11/24 12:04:50;;;;;;;4.90;3.50;;;20.90;95.40;;;;;;5073828;28;20040;-67
2021/11/24 12:07:20;;;;;;;5.72;3.50;;;20.90;94.80;;;;;;5102904;28;20044;-66
2021/11/24 12:09:49;;;;;;;5.75;3.03;;;20.60;94.70;;;;;;5097492;28;20504;-66
2021/11/24 12:12:31;;;;;;;6.82;3.45;;;20.00;94.80;;;;;;5072937;28;20482;-66
2021/11/24 12:15:25;;;;;;;14.52;3.47;;;18.10;95.80;;;;;;5092427;28;20050;-67
2021/11/24 12:18:00;;;;;;;5.82;3.17;;;16.70;97.90;;;;;;5081260;28;20148;-67
2021/11/24 12:20:29;;;;;;;7.43;3.33;;;16.30;98.90;;;;;;5094795;28;20074;-66
2021/11/24 12:23:00;;;;;;;5.40;3.53;;;16.30;99.60;;;;;;5104495;28;20048;-67
2021/11/24 12:25:27;;;;;;;4.93;2.95;;;16.90;99.20;;;;;;5093722;28;20054;-67
2021/11/24 12:27:58;;;;;;;5.38;3.63;;;18.10;98.20;;;;;;5106774;28;20741;-67
2021/11/24 12:33:06;;;;;;;6.20;3.55;;;19.60;96.00;;;;;;5102666;28;20032;-66
2021/11/24 12:35:36;;;;;;;6.15;3.28;;;19.40;96.20;;;;;;5103893;28;20082;-67
2021/11/24 12:38:25;;;;;;;7.28;3.92;;;19.70;95.40;;;;;;5104392;28;20039;-66
2021/11/24 12:40:55;;;;;;;6.15;3.60;;;20.10;95.50;;;;;;5104670;28;20044;-67
2021/11/24 12:43:25;;;;;;;5.05;3.58;;;20.70;94.50;;;;;;5108678;28;20112;-67
2021/11/24 12:46:02;;;;;;;5.93;3.60;;;21.10;93.70;;;;;;5106296;28;20028;-67
2021/11/24 12:48:35;;;;;;;6.22;3.10;;;21.80;93.20;;;;;;5082179;28;20040;-67
2021/11/24 12:51:08;;;;;;;7.43;3.20;;;22.30;92.20;;;;;;5109528;28;20047;-67
2021/11/24 12:53:38;;;;;;;6.32;3.20;;;21.50;92.20;;;;;;5106203;28;20401;-67